sensor_id;sensor_type;location;lat;lon;timestamp;temperature;humidity
8481;DHT22;4277;51.354;6.740;2022-12-18T00:01:46;-3.70;99.90
8481;DHT22;4277;51.354;6.740;2022-12-18T00:04:23;-3.80;99.90
8481;DHT22;4277;51.354;6.740;2022-12-18T00:06:49;-3.80;99.90
8481;DHT22;4277;51.354;6.740;2022-12-18T00:09:15;-3.70;99.90
8481;DHT22;4277;51.354;6.740;2022-12-18T00:11:40;-3.70;99.90
8481;DHT22;4277;51.354;6.740;2022-12-18T00:14:06;-3.70;99.90
8481;DHT22;4277;51.354;6.740;2022-12-18T00:16:32;-3.70;99.90
8481;DHT22;4277;51.354;6.740;2022-12-18T00:19:00;-3.70;99.90
8481;DHT22;4277;51.354;6.740;2022-12-18T00:21:27;-3.70;99.90
8481;DHT22;4277;51.354;6.740;2022-12-18T00:23:54;-3.50;99.90
8481;DHT22;4277;51.354;6.740;2022-12-18T00:26:30;-3.60;99.90
8481;DHT22;4277;51.354;6.740;2022-12-18T00:29:22;-3.60;99.90
8481;DHT22;4277;51.354;6.740;2022-12-18T00:31:48;-3.60;99.90
8481;DHT22;4277;51.354;6.740;2022-12-18T00:34:14;-3.60;99.90
8481;DHT22;4277;51.354;6.740;2022-12-18T00:36:40;-3.60;99.90
8481;DHT22;4277;51.354;6.740;2022-12-18T00:39:06;-3.70;99.90
8481;DHT22;4277;51.354;6.740;2022-12-18T00:41:32;-3.80;99.90
8481;DHT22;4277;51.354;6.740;2022-12-18T00:44:17;-3.80;99.90
8481;DHT22;4277;51.354;6.740;2022-12-18T00:46:43;-4.00;99.90
8481;DHT22;4277;51.354;6.740;2022-12-18T00:49:12;-4.00;99.90
8481;DHT22;4277;51.354;6.740;2022-12-18T00:51:38;-3.80;99.90
8481;DHT22;4277;51.354;6.740;2022-12-18T00:54:04;-3.70;99.90
8481;DHT22;4277;51.354;6.740;2022-12-18T00:56:30;-3.60;99.90
8481;DHT22;4277;51.354;6.740;2022-12-18T00:58:56;-3.60;99.90
8481;DHT22;4277;51.354;6.740;2022-12-18T01:01:22;-3.60;99.90
8481;DHT22;4277;51.354;6.740;2022-12-18T01:03:47;-3.60;99.90
8481;DHT22;4277;51.354;6.740;2022-12-18T01:06:15;-3.60;99.90
8481;DHT22;4277;51.354;6.740;2022-12-18T01:08:41;-3.60;99.90
8481;DHT22;4277;51.354;6.740;2022-12-18T01:11:09;-3.80;99.90
8481;DHT22;4277;51.354;6.740;2022-12-18T01:13:35;-3.90;99.90
8481;DHT22;4277;51.354;6.740;2022-12-18T01:16:00;-3.90;99.90
8481;DHT22;4277;51.354;6.740;2022-12-18T01:18:26;-4.00;99.90
8481;DHT22;4277;51.354;6.740;2022-12-18T01:20:51;-3.90;99.90
8481;DHT22;4277;51.354;6.740;2022-12-18T01:23:17;-3.80;99.90
8481;DHT22;4277;51.354;6.740;2022-12-18T01:25:42;-3.80;99.90
8481;DHT22;4277;51.354;6.740;2022-12-18T01:28:08;-3.80;99.90
8481;DHT22;4277;51.354;6.740;2022-12-18T01:30:33;-3.80;99.90
8481;DHT22;4277;51.354;6.740;2022-12-18T01:32:59;-3.80;99.90
8481;DHT22;4277;51.354;6.740;2022-12-18T01:35:24;-3.90;99.90
8481;DHT22;4277;51.354;6.740;2022-12-18T01:37:54;-3.80;99.90
8481;DHT22;4277;51.354;6.740;2022-12-18T01:40:19;-3.70;99.90
8481;DHT22;4277;51.354;6.740;2022-12-18T01:42:51;-3.70;99.90
8481;DHT22;4277;51.354;6.740;2022-12-18T01:45:29;-3.60;99.90
8481;DHT22;4277;51.354;6.740;2022-12-18T01:48:04;-3.00;99.90
8481;DHT22;4277;51.354;6.740;2022-12-18T01:50:42;-4.00;99.90
8481;DHT22;4277;51.354;6.740;2022-12-18T01:53:14;-4.10;99.90
8481;DHT22;4277;51.354;6.740;2022-12-18T01:55:45;-4.10;99.90
8481;DHT22;4277;51.354;6.740;2022-12-18T01:58:12;-4.10;99.90
8481;DHT22;4277;51.354;6.740;2022-12-18T02:00:38;-4.10;99.90
8481;DHT22;4277;51.354;6.740;2022-12-18T02:03:03;-4.00;99.90
8481;DHT22;4277;51.354;6.740;2022-12-18T02:05:49;-4.00;99.90
8481;DHT22;4277;51.354;6.740;2022-12-18T02:08:24;-4.00;99.90
8481;DHT22;4277;51.354;6.740;2022-12-18T02:11:07;-4.00;99.90
8481;DHT22;4277;51.354;6.740;2022-12-18T02:13:46;-4.00;99.90
8481;DHT22;4277;51.354;6.740;2022-12-18T02:19:20;-4.10;99.90
8481;DHT22;4277;51.354;6.740;2022-12-18T02:22:03;-4.00;99.90
8481;DHT22;4277;51.354;6.740;2022-12-18T02:27:10;-4.00;99.90
8481;DHT22;4277;51.354;6.740;2022-12-18T02:29:53;-3.90;99.90
8481;DHT22;4277;51.354;6.740;2022-12-18T02:32:27;-3.90;99.90
8481;DHT22;4277;51.354;6.740;2022-12-18T02:34:56;-3.80;99.90
8481;DHT22;4277;51.354;6.740;2022-12-18T02:37:23;-3.70;99.90
8481;DHT22;4277;51.354;6.740;2022-12-18T02:39:52;-3.60;99.90
8481;DHT22;4277;51.354;6.740;2022-12-18T02:42:18;-3.50;99.90
8481;DHT22;4277;51.354;6.740;2022-12-18T02:44:47;-3.50;99.90
8481;DHT22;4277;51.354;6.740;2022-12-18T02:47:15;-3.40;99.90
8481;DHT22;4277;51.354;6.740;2022-12-18T02:50:05;-3.40;99.90
8481;DHT22;4277;51.354;6.740;2022-12-18T02:52:42;-3.40;99.90
8481;DHT22;4277;51.354;6.740;2022-12-18T02:55:52;-3.40;99.90
8481;DHT22;4277;51.354;6.740;2022-12-18T03:01:33;-3.60;99.90
8481;DHT22;4277;51.354;6.740;2022-12-18T03:04:32;-3.50;99.90
8481;DHT22;4277;51.354;6.740;2022-12-18T03:07:03;-3.50;99.90
8481;DHT22;4277;51.354;6.740;2022-12-18T03:09:36;-3.60;99.90
8481;DHT22;4277;51.354;6.740;2022-12-18T03:12:26;-3.60;99.90
8481;DHT22;4277;51.354;6.740;2022-12-18T03:17:27;-3.60;99.90
8481;DHT22;4277;51.354;6.740;2022-12-18T03:19:56;-3.60;99.90
8481;DHT22;4277;51.354;6.740;2022-12-18T03:22:27;-3.60;99.90
8481;DHT22;4277;51.354;6.740;2022-12-18T03:24:56;-3.60;99.90
8481;DHT22;4277;51.354;6.740;2022-12-18T03:27:22;-3.60;99.90
8481;DHT22;4277;51.354;6.740;2022-12-18T03:29:53;-3.50;99.90
8481;DHT22;4277;51.354;6.740;2022-12-18T03:32:25;-3.60;99.90
8481;DHT22;4277;51.354;6.740;2022-12-18T03:34:53;-3.60;99.90
8481;DHT22;4277;51.354;6.740;2022-12-18T03:37:20;-3.60;99.90
8481;DHT22;4277;51.354;6.740;2022-12-18T03:39:46;-3.60;99.90
8481;DHT22;4277;51.354;6.740;2022-12-18T03:42:15;-3.50;99.90
8481;DHT22;4277;51.354;6.740;2022-12-18T03:44:51;-3.50;99.90
8481;DHT22;4277;51.354;6.740;2022-12-18T03:47:30;-3.50;99.90
8481;DHT22;4277;51.354;6.740;2022-12-18T03:50:22;-3.50;99.90
8481;DHT22;4277;51.354;6.740;2022-12-18T03:53:00;-3.60;99.90
8481;DHT22;4277;51.354;6.740;2022-12-18T03:55:30;-3.60;99.90
8481;DHT22;4277;51.354;6.740;2022-12-18T03:57:57;-3.70;99.90
8481;DHT22;4277;51.354;6.740;2022-12-18T04:00:23;-3.70;99.90
8481;DHT22;4277;51.354;6.740;2022-12-18T04:02:52;-3.60;99.90
8481;DHT22;4277;51.354;6.740;2022-12-18T04:05:19;-3.50;99.90
8481;DHT22;4277;51.354;6.740;2022-12-18T04:07:47;-3.50;99.90
8481;DHT22;4277;51.354;6.740;2022-12-18T04:10:15;-3.50;99.90
8481;DHT22;4277;51.354;6.740;2022-12-18T04:12:41;-3.40;99.90
8481;DHT22;4277;51.354;6.740;2022-12-18T04:15:08;-3.40;99.90
8481;DHT22;4277;51.354;6.740;2022-12-18T04:17:33;-3.50;99.90
8481;DHT22;4277;51.354;6.740;2022-12-18T04:19:59;-3.70;99.90
8481;DHT22;4277;51.354;6.740;2022-12-18T04:22:25;-3.70;99.90
8481;DHT22;4277;51.354;6.740;2022-12-18T04:24:50;-3.80;99.90
8481;DHT22;4277;51.354;6.740;2022-12-18T04:27:16;-3.90;99.90
8481;DHT22;4277;51.354;6.740;2022-12-18T04:29:41;-3.80;99.90
8481;DHT22;4277;51.354;6.740;2022-12-18T04:32:07;-4.00;99.90
8481;DHT22;4277;51.354;6.740;2022-12-18T04:34:33;-4.00;99.90
8481;DHT22;4277;51.354;6.740;2022-12-18T04:36:59;-4.00;99.90
8481;DHT22;4277;51.354;6.740;2022-12-18T04:39:24;-4.00;99.90
8481;DHT22;4277;51.354;6.740;2022-12-18T04:41:50;-4.00;99.90
8481;DHT22;4277;51.354;6.740;2022-12-18T04:44:15;-3.90;99.90
8481;DHT22;4277;51.354;6.740;2022-12-18T04:46:41;-3.80;99.90
8481;DHT22;4277;51.354;6.740;2022-12-18T04:49:07;-3.90;99.90
8481;DHT22;4277;51.354;6.740;2022-12-18T04:51:32;-3.90;99.90
8481;DHT22;4277;51.354;6.740;2022-12-18T04:53:58;-3.80;99.90
8481;DHT22;4277;51.354;6.740;2022-12-18T04:56:23;-3.90;99.90
8481;DHT22;4277;51.354;6.740;2022-12-18T04:58:49;-3.90;99.90
8481;DHT22;4277;51.354;6.740;2022-12-18T05:01:16;-3.90;99.90
8481;DHT22;4277;51.354;6.740;2022-12-18T05:03:43;-4.00;99.90
8481;DHT22;4277;51.354;6.740;2022-12-18T05:06:09;-4.00;99.90
8481;DHT22;4277;51.354;6.740;2022-12-18T05:08:34;-4.10;99.90
8481;DHT22;4277;51.354;6.740;2022-12-18T05:11:09;-4.10;99.90
8481;DHT22;4277;51.354;6.740;2022-12-18T05:13:35;-4.20;99.90
8481;DHT22;4277;51.354;6.740;2022-12-18T05:16:02;-4.20;99.90
8481;DHT22;4277;51.354;6.740;2022-12-18T05:18:28;-4.30;99.90
8481;DHT22;4277;51.354;6.740;2022-12-18T05:20:53;-4.30;99.90
8481;DHT22;4277;51.354;6.740;2022-12-18T05:23:20;-4.30;99.90
8481;DHT22;4277;51.354;6.740;2022-12-18T05:25:53;-4.20;99.90
8481;DHT22;4277;51.354;6.740;2022-12-18T05:28:19;-4.20;99.90
8481;DHT22;4277;51.354;6.740;2022-12-18T05:30:49;-4.20;99.90
8481;DHT22;4277;51.354;6.740;2022-12-18T05:33:16;-4.20;99.90
8481;DHT22;4277;51.354;6.740;2022-12-18T05:35:41;-4.40;99.90
8481;DHT22;4277;51.354;6.740;2022-12-18T05:38:07;-4.50;99.90
8481;DHT22;4277;51.354;6.740;2022-12-18T05:40:32;-4.60;99.90
8481;DHT22;4277;51.354;6.740;2022-12-18T05:42:58;-4.60;99.90
8481;DHT22;4277;51.354;6.740;2022-12-18T05:45:23;-4.70;99.90
8481;DHT22;4277;51.354;6.740;2022-12-18T05:47:49;-4.70;99.90
8481;DHT22;4277;51.354;6.740;2022-12-18T05:50:14;-4.70;99.90
8481;DHT22;4277;51.354;6.740;2022-12-18T05:52:40;-4.70;99.90
8481;DHT22;4277;51.354;6.740;2022-12-18T05:55:06;-4.60;99.90
8481;DHT22;4277;51.354;6.740;2022-12-18T05:57:32;-4.50;99.90
8481;DHT22;4277;51.354;6.740;2022-12-18T05:59:57;-4.50;99.90
8481;DHT22;4277;51.354;6.740;2022-12-18T06:02:23;-4.50;99.90
8481;DHT22;4277;51.354;6.740;2022-12-18T06:04:48;-4.40;99.90
8481;DHT22;4277;51.354;6.740;2022-12-18T06:07:14;-4.30;99.90
8481;DHT22;4277;51.354;6.740;2022-12-18T06:09:39;-4.20;99.90
8481;DHT22;4277;51.354;6.740;2022-12-18T06:12:05;-4.40;99.90
8481;DHT22;4277;51.354;6.740;2022-12-18T06:14:31;-4.40;99.90
8481;DHT22;4277;51.354;6.740;2022-12-18T06:16:56;-4.40;99.90
8481;DHT22;4277;51.354;6.740;2022-12-18T06:19:22;-4.40;99.90
8481;DHT22;4277;51.354;6.740;2022-12-18T06:21:47;-4.20;99.90
8481;DHT22;4277;51.354;6.740;2022-12-18T06:24:14;-4.10;99.90
8481;DHT22;4277;51.354;6.740;2022-12-18T06:26:40;-3.90;99.90
8481;DHT22;4277;51.354;6.740;2022-12-18T06:29:06;-3.80;99.90
8481;DHT22;4277;51.354;6.740;2022-12-18T06:31:31;-3.80;99.90
8481;DHT22;4277;51.354;6.740;2022-12-18T06:33:57;-3.70;99.90
8481;DHT22;4277;51.354;6.740;2022-12-18T06:36:23;-3.70;99.90
8481;DHT22;4277;51.354;6.740;2022-12-18T06:38:48;-3.10;99.90
8481;DHT22;4277;51.354;6.740;2022-12-18T06:41:16;-3.70;99.90
8481;DHT22;4277;51.354;6.740;2022-12-18T06:43:43;-3.70;99.90
8481;DHT22;4277;51.354;6.740;2022-12-18T06:46:09;-3.70;99.90
8481;DHT22;4277;51.354;6.740;2022-12-18T06:48:35;-3.70;99.90
8481;DHT22;4277;51.354;6.740;2022-12-18T06:51:00;-3.80;99.90
8481;DHT22;4277;51.354;6.740;2022-12-18T06:53:26;-3.80;99.90
8481;DHT22;4277;51.354;6.740;2022-12-18T06:55:52;-3.80;99.90
8481;DHT22;4277;51.354;6.740;2022-12-18T06:58:17;-3.90;99.90
8481;DHT22;4277;51.354;6.740;2022-12-18T07:00:43;-4.00;99.90
8481;DHT22;4277;51.354;6.740;2022-12-18T07:03:08;-4.00;99.90
8481;DHT22;4277;51.354;6.740;2022-12-18T07:05:34;-4.10;99.90
8481;DHT22;4277;51.354;6.740;2022-12-18T07:08:04;-4.00;99.90
8481;DHT22;4277;51.354;6.740;2022-12-18T07:10:29;-4.10;99.90
8481;DHT22;4277;51.354;6.740;2022-12-18T07:12:55;-4.10;99.90
8481;DHT22;4277;51.354;6.740;2022-12-18T07:15:21;-4.10;99.90
8481;DHT22;4277;51.354;6.740;2022-12-18T07:17:46;-4.10;99.90
8481;DHT22;4277;51.354;6.740;2022-12-18T07:20:12;-4.10;99.90
8481;DHT22;4277;51.354;6.740;2022-12-18T07:22:37;-4.10;99.90
8481;DHT22;4277;51.354;6.740;2022-12-18T07:25:03;-4.30;99.90
8481;DHT22;4277;51.354;6.740;2022-12-18T07:27:29;-4.10;99.90
8481;DHT22;4277;51.354;6.740;2022-12-18T07:29:54;-4.10;99.90
8481;DHT22;4277;51.354;6.740;2022-12-18T07:32:20;-4.20;99.90
8481;DHT22;4277;51.354;6.740;2022-12-18T07:34:45;-4.20;99.90
8481;DHT22;4277;51.354;6.740;2022-12-18T07:37:11;-4.20;99.90
8481;DHT22;4277;51.354;6.740;2022-12-18T07:39:36;-4.10;99.90
8481;DHT22;4277;51.354;6.740;2022-12-18T07:42:02;-4.00;99.90
8481;DHT22;4277;51.354;6.740;2022-12-18T07:44:46;-3.90;99.90
8481;DHT22;4277;51.354;6.740;2022-12-18T07:47:12;-3.70;99.90
8481;DHT22;4277;51.354;6.740;2022-12-18T07:49:37;-3.90;99.90
8481;DHT22;4277;51.354;6.740;2022-12-18T07:52:03;-3.80;99.90
8481;DHT22;4277;51.354;6.740;2022-12-18T07:54:28;-3.70;99.90
8481;DHT22;4277;51.354;6.740;2022-12-18T07:56:54;-3.70;99.90
8481;DHT22;4277;51.354;6.740;2022-12-18T07:59:20;-3.70;99.90
8481;DHT22;4277;51.354;6.740;2022-12-18T08:01:45;-3.60;99.90
8481;DHT22;4277;51.354;6.740;2022-12-18T08:04:11;-3.80;99.90
8481;DHT22;4277;51.354;6.740;2022-12-18T08:06:36;-3.70;99.90
8481;DHT22;4277;51.354;6.740;2022-12-18T08:09:02;-3.60;99.90
8481;DHT22;4277;51.354;6.740;2022-12-18T08:11:28;-3.70;99.90
8481;DHT22;4277;51.354;6.740;2022-12-18T08:13:55;-3.70;99.90
8481;DHT22;4277;51.354;6.740;2022-12-18T08:16:21;-3.60;99.90
8481;DHT22;4277;51.354;6.740;2022-12-18T08:18:47;-3.60;99.90
8481;DHT22;4277;51.354;6.740;2022-12-18T08:21:18;-3.50;99.90
8481;DHT22;4277;51.354;6.740;2022-12-18T08:23:46;-3.50;99.90
8481;DHT22;4277;51.354;6.740;2022-12-18T08:26:11;-3.50;99.90
8481;DHT22;4277;51.354;6.740;2022-12-18T08:28:37;-3.40;99.90
8481;DHT22;4277;51.354;6.740;2022-12-18T08:31:03;-3.40;99.90
8481;DHT22;4277;51.354;6.740;2022-12-18T08:33:29;-3.40;99.90
8481;DHT22;4277;51.354;6.740;2022-12-18T08:35:54;-3.30;99.90
8481;DHT22;4277;51.354;6.740;2022-12-18T08:38:20;-3.30;99.90
8481;DHT22;4277;51.354;6.740;2022-12-18T08:40:45;-3.20;99.90
8481;DHT22;4277;51.354;6.740;2022-12-18T08:43:11;-3.40;99.90
8481;DHT22;4277;51.354;6.740;2022-12-18T08:45:55;-3.10;99.90
8481;DHT22;4277;51.354;6.740;2022-12-18T08:48:21;-3.20;99.90
8481;DHT22;4277;51.354;6.740;2022-12-18T08:50:59;-2.80;99.90
8481;DHT22;4277;51.354;6.740;2022-12-18T08:53:26;-3.00;99.90
8481;DHT22;4277;51.354;6.740;2022-12-18T08:55:52;-3.00;99.90
8481;DHT22;4277;51.354;6.740;2022-12-18T08:58:18;-2.90;99.90
8481;DHT22;4277;51.354;6.740;2022-12-18T09:00:44;-2.90;99.90
8481;DHT22;4277;51.354;6.740;2022-12-18T09:03:13;-2.90;99.90
8481;DHT22;4277;51.354;6.740;2022-12-18T09:05:39;-2.90;99.90
8481;DHT22;4277;51.354;6.740;2022-12-18T09:08:04;-2.80;99.90
8481;DHT22;4277;51.354;6.740;2022-12-18T09:10:31;-2.90;99.90
8481;DHT22;4277;51.354;6.740;2022-12-18T09:12:57;-2.90;99.90
8481;DHT22;4277;51.354;6.740;2022-12-18T09:15:22;-3.00;99.90
8481;DHT22;4277;51.354;6.740;2022-12-18T09:17:48;-2.90;99.90
8481;DHT22;4277;51.354;6.740;2022-12-18T09:20:18;-2.90;99.90
8481;DHT22;4277;51.354;6.740;2022-12-18T09:22:44;-2.90;99.90
8481;DHT22;4277;51.354;6.740;2022-12-18T09:25:10;-2.90;99.90
8481;DHT22;4277;51.354;6.740;2022-12-18T09:27:35;-2.90;99.90
8481;DHT22;4277;51.354;6.740;2022-12-18T09:30:01;-2.80;99.90
8481;DHT22;4277;51.354;6.740;2022-12-18T09:32:27;-2.70;99.90
8481;DHT22;4277;51.354;6.740;2022-12-18T09:34:53;-2.60;99.90
8481;DHT22;4277;51.354;6.740;2022-12-18T09:37:18;-2.60;99.90
8481;DHT22;4277;51.354;6.740;2022-12-18T09:39:44;-2.50;99.90
8481;DHT22;4277;51.354;6.740;2022-12-18T09:42:21;-2.40;99.90
8481;DHT22;4277;51.354;6.740;2022-12-18T09:44:50;-2.40;99.90
8481;DHT22;4277;51.354;6.740;2022-12-18T09:47:23;-2.40;99.90
8481;DHT22;4277;51.354;6.740;2022-12-18T09:49:55;-2.40;99.90
8481;DHT22;4277;51.354;6.740;2022-12-18T09:52:30;-2.30;99.90
8481;DHT22;4277;51.354;6.740;2022-12-18T09:57:35;-2.20;99.90
8481;DHT22;4277;51.354;6.740;2022-12-18T10:00:20;-2.30;99.90
8481;DHT22;4277;51.354;6.740;2022-12-18T10:02:46;-2.30;99.90
8481;DHT22;4277;51.354;6.740;2022-12-18T10:14:23;-2.20;99.90
8481;DHT22;4277;51.354;6.740;2022-12-18T10:21:59;-2.10;99.90
8481;DHT22;4277;51.354;6.740;2022-12-18T10:24:39;-1.90;99.90
8481;DHT22;4277;51.354;6.740;2022-12-18T10:27:16;-1.90;99.90
8481;DHT22;4277;51.354;6.740;2022-12-18T10:29:44;-1.80;99.90
8481;DHT22;4277;51.354;6.740;2022-12-18T10:32:18;-1.70;99.90
8481;DHT22;4277;51.354;6.740;2022-12-18T10:34:46;-1.50;99.90
